KTMA/TMA METAR and TAF weather

Enter ICAO airport designator
Station Type Date Time Source
KTMA METAR 2022/05/23 13:55 UTC NOAA

KTMA 231355Z AUTO 19006KT 10SM SCT019 SCT080 26/22 A3012 RMK AO2 T02600221


Station Type Date Time Source
KTMA Decoded METAR 2022/05/23 13:55 UTC NOAA

Station name not available
May 23, 2022 - 09:55 AM EDT / 2022.05.23 1355 UTC
Wind: from the S (190 degrees) at 7 MPH (6 KT):0
Visibility: 10 mile(s):0
Sky conditions: partly cloudy
Temperature: 78.8 F (26.0 C)
Dew Point: 71.8 F (22.1 C)
Relative Humidity: 79%
Pressure (altimeter): 30.12 in. Hg (1019 hPa)
ob: KTMA 231355Z AUTO 19006KT 10SM SCT019 SCT080 26/22 A3012 RMK AO2 T02600221
cycle: 14

Station Type Date Time Source
KTMA TAF UTC NOAA

Error!

Example: see airport list